Time;durP1;ratioP1;P1;durP2;ratioP2;P2;SDS_P1;SDS_P2;PMS_P1;PMS_P2;Temp;Humidity;BMP_temperature;BMP_pressure;BME280_temperature;BME280_humidity;BME280_pressure;Samples;Min_cycle;Max_cycle;Signal;HPM_P1;HPM_P2
2022/07/17 00:01:33;;;;;;;;;;;10.90;99.90;;;;;;4994868;28;20124;-84
2022/07/17 00:03:59;;;;;;;;;;;10.90;99.90;;;;;;4997439;28;19939;-84
2022/07/17 00:06:25;;;;;;;;;;;10.90;99.90;;;;;;4992683;28;19993;-84
2022/07/17 00:08:51;;;;;;;;;;;10.90;99.90;;;;;;4993402;28;19929;-84
2022/07/17 00:11:16;;;;;;;;;;;10.80;99.90;;;;;;4993384;28;20834;-84
2022/07/17 00:13:42;;;;;;;;;;;10.80;99.90;;;;;;5009696;28;19961;-84
2022/07/17 00:16:08;;;;;;;;;;;10.80;99.90;;;;;;5014584;28;19983;-85
2022/07/17 00:18:33;;;;;;;;;;;10.70;99.90;;;;;;5008758;28;19929;-83
2022/07/17 00:20:59;;;;;;;;;;;10.60;99.90;;;;;;5013804;28;19947;-85
2022/07/17 00:23:25;;;;;;;;;;;10.40;99.90;;;;;;4984320;28;19932;-84
2022/07/17 00:25:50;;;;;;;;;;;10.40;99.90;;;;;;4995365;28;20119;-84
2022/07/17 00:28:16;;;;;;;;;;;10.40;99.90;;;;;;4995910;28;20440;-84
2022/07/17 00:30:45;;;;;;;;;;;10.40;99.90;;;;;;4999995;28;20023;-85
2022/07/17 00:33:10;;;;;;;;;;;10.30;99.90;;;;;;4989462;28;19928;-85
2022/07/17 00:35:39;;;;;;;;;;;10.30;99.90;;;;;;4994240;28;20372;-84
2022/07/17 00:38:04;;;;;;;;;;;10.40;99.90;;;;;;4998979;28;19932;-85
2022/07/17 00:40:30;;;;;;;;;;;10.40;99.90;;;;;;4998880;28;20044;-84
2022/07/17 00:42:56;;;;;;;;;;;10.50;99.90;;;;;;4994288;28;20307;-84
2022/07/17 00:45:24;;;;;;;;;;;10.40;99.90;;;;;;4977603;28;19975;-85
2022/07/17 00:47:55;;;;;;;;;;;10.30;99.90;;;;;;4996788;28;19981;-84
2022/07/17 00:50:26;;;;;;;;;;;10.30;99.90;;;;;;4993486;28;19928;-84
2022/07/17 00:52:52;;;;;;;;;;;10.30;99.90;;;;;;4978136;28;19933;-84
2022/07/17 00:55:17;;;;;;;;;;;10.30;99.90;;;;;;4993810;28;19983;-85
2022/07/17 00:57:45;;;;;;;;;;;10.20;99.90;;;;;;4980028;28;20420;-86
2022/07/17 01:00:11;;;;;;;;;;;10.30;99.90;;;;;;4992295;28;20296;-85
2022/07/17 01:02:37;;;;;;;;;;;10.30;99.90;;;;;;4992541;28;20577;-84
2022/07/17 01:05:03;;;;;;;;;;;10.40;99.90;;;;;;4993204;28;19929;-84
2022/07/17 01:07:29;;;;;;;;;;;10.40;99.90;;;;;;4981825;28;19929;-84
2022/07/17 01:09:55;;;;;;;;;;;10.20;99.90;;;;;;5003847;28;19940;-84
2022/07/17 01:12:22;;;;;;;;;;;10.20;99.90;;;;;;5000497;28;20797;-84
2022/07/17 01:14:48;;;;;;;;;;;10.20;99.90;;;;;;5011295;28;19929;-85
2022/07/17 01:17:13;;;;;;;;;;;10.20;99.90;;;;;;4996228;28;19936;-85
2022/07/17 01:19:39;;;;;;;;;;;10.20;99.90;;;;;;4994477;28;19929;-85
2022/07/17 01:22:05;;;;;;;;;;;10.30;99.90;;;;;;4988914;28;19929;-84
2022/07/17 01:24:30;;;;;;;;;;;10.20;99.90;;;;;;4974604;28;20043;-84
2022/07/17 01:26:56;;;;;;;;;;;10.20;99.90;;;;;;4996350;28;19983;-84
2022/07/17 01:29:22;;;;;;;;;;;10.00;99.90;;;;;;4993577;28;19967;-84
2022/07/17 01:31:48;;;;;;;;;;;10.10;99.90;;;;;;4972414;28;20405;-84
2022/07/17 01:34:14;;;;;;;;;;;10.10;99.90;;;;;;4991537;28;19940;-84
2022/07/17 01:36:40;;;;;;;;;;;10.10;99.90;;;;;;4990087;28;19933;-84
2022/07/17 01:39:05;;;;;;;;;;;10.00;99.90;;;;;;4995361;28;20032;-84
2022/07/17 01:41:31;;;;;;;;;;;10.00;99.90;;;;;;4976024;28;19929;-84
2022/07/17 01:43:56;;;;;;;;;;;10.00;99.90;;;;;;4979892;28;19929;-84
2022/07/17 01:46:22;;;;;;;;;;;9.90;99.90;;;;;;4991125;28;20393;-84
2022/07/17 01:48:48;;;;;;;;;;;9.90;99.90;;;;;;4994634;28;20032;-83
2022/07/17 01:51:13;;;;;;;;;;;9.90;99.90;;;;;;4989774;28;19935;-83
2022/07/17 01:53:39;;;;;;;;;;;9.90;99.90;;;;;;4993976;28;19929;-83
2022/07/17 01:56:05;;;;;;;;;;;9.80;99.90;;;;;;5003963;28;19928;-84
2022/07/17 01:58:30;;;;;;;;;;;9.80;99.90;;;;;;4998347;28;19986;-84
2022/07/17 02:00:56;;;;;;;;;;;9.90;99.90;;;;;;4999494;28;20075;-84
2022/07/17 02:03:22;;;;;;;;;;;9.80;99.90;;;;;;4997834;28;20417;-84
2022/07/17 02:05:48;;;;;;;;;;;9.90;99.90;;;;;;4990268;28;19929;-83
2022/07/17 02:08:14;;;;;;;;;;;9.90;99.90;;;;;;4996411;28;19971;-83
2022/07/17 02:10:39;;;;;;;;;;;9.90;99.90;;;;;;4996665;28;19933;-84
2022/07/17 02:13:05;;;;;;;;;;;9.80;99.90;;;;;;4998010;28;19933;-84
2022/07/17 02:15:31;;;;;;;;;;;9.80;99.90;;;;;;4996851;28;20024;-84
2022/07/17 02:17:56;;;;;;;;;;;9.80;99.90;;;;;;4997418;28;19929;-84
2022/07/17 02:20:22;;;;;;;;;;;9.80;99.90;;;;;;4997020;28;20295;-84
2022/07/17 02:22:48;;;;;;;;;;;9.80;99.90;;;;;;5008978;28;20553;-83
2022/07/17 02:25:14;;;;;;;;;;;9.80;99.90;;;;;;5013339;28;20016;-83
2022/07/17 02:27:40;;;;;;;;;;;9.80;99.90;;;;;;4989803;28;19925;-84
2022/07/17 02:30:08;;;;;;;;;;;9.80;99.90;;;;;;5011635;28;20464;-83
2022/07/17 02:32:33;;;;;;;;;;;9.70;99.90;;;;;;5012268;28;19929;-84
2022/07/17 02:34:59;;;;;;;;;;;9.70;99.90;;;;;;5010669;28;19949;-83
2022/07/17 02:37:24;;;;;;;;;;;9.70;99.90;;;;;;5011044;28;20034;-83
2022/07/17 02:39:53;;;;;;;;;;;9.70;99.90;;;;;;5008683;28;19983;-83
2022/07/17 02:42:23;;;;;;;;;;;9.60;99.90;;;;;;5009167;28;19928;-84
2022/07/17 02:44:49;;;;;;;;;;;9.70;99.90;;;;;;5010963;28;19934;-84
2022/07/17 02:47:25;;;;;;;;;;;9.60;99.90;;;;;;5005485;28;19936;-84
2022/07/17 02:49:51;;;;;;;;;;;9.30;99.90;;;;;;4988158;28;19929;-83
2022/07/17 02:52:16;;;;;;;;;;;9.30;99.90;;;;;;5010122;28;20603;-83
2022/07/17 02:54:42;;;;;;;;;;;9.50;99.90;;;;;;4995412;28;19941;-83
2022/07/17 02:57:08;;;;;;;;;;;9.60;99.90;;;;;;4991353;28;22659;-83
2022/07/17 02:59:34;;;;;;;;;;;9.60;99.90;;;;;;5007375;28;19933;-84
2022/07/17 03:02:00;;;;;;;;;;;9.50;99.90;;;;;;5010954;28;19929;-84
2022/07/17 03:04:25;;;;;;;;;;;9.40;99.90;;;;;;5006491;28;19959;-83
2022/07/17 03:06:51;;;;;;;;;;;9.40;99.90;;;;;;5007786;28;19960;-84
2022/07/17 03:09:17;;;;;;;;;;;9.40;99.90;;;;;;5007148;28;19929;-84
2022/07/17 03:11:42;;;;;;;;;;;9.40;99.90;;;;;;5005998;28;20028;-83
2022/07/17 03:14:08;;;;;;;;;;;9.40;99.90;;;;;;5007934;28;19933;-84
2022/07/17 03:16:33;;;;;;;;;;;9.30;99.90;;;;;;5006235;28;19929;-85
2022/07/17 03:18:59;;;;;;;;;;;9.30;99.90;;;;;;4997705;28;19929;-84
2022/07/17 03:21:25;;;;;;;;;;;9.40;99.90;;;;;;5005271;28;19986;-84
2022/07/17 03:23:50;;;;;;;;;;;9.40;99.90;;;;;;4990635;28;20445;-84
2022/07/17 03:26:16;;;;;;;;;;;9.40;99.90;;;;;;5013258;28;19929;-85
2022/07/17 03:28:41;;;;;;;;;;;9.50;99.90;;;;;;5008466;28;20015;-83
2022/07/17 03:31:07;;;;;;;;;;;9.50;99.90;;;;;;5011207;28;19933;-84
2022/07/17 03:33:33;;;;;;;;;;;9.50;99.90;;;;;;5008300;28;19980;-84
2022/07/17 03:35:59;;;;;;;;;;;9.50;99.90;;;;;;4992902;28;21061;-83
2022/07/17 03:38:25;;;;;;;;;;;9.50;99.90;;;;;;5013959;28;19947;-82
2022/07/17 03:40:50;;;;;;;;;;;9.40;99.90;;;;;;5014360;28;19935;-84
2022/07/17 03:43:16;;;;;;;;;;;9.30;99.90;;;;;;5014920;28;19929;-82
2022/07/17 03:45:42;;;;;;;;;;;9.50;99.90;;;;;;4991907;28;20023;-83
2022/07/17 03:48:07;;;;;;;;;;;9.40;99.90;;;;;;5011505;28;20043;-84
2022/07/17 03:50:33;;;;;;;;;;;9.40;99.90;;;;;;5014313;28;20815;-83
2022/07/17 03:52:59;;;;;;;;;;;9.40;99.90;;;;;;5013019;28;19928;-83
2022/07/17 03:55:25;;;;;;;;;;;9.40;99.90;;;;;;5009443;28;19979;-83
2022/07/17 03:57:56;;;;;;;;;;;9.30;99.90;;;;;;5006551;28;19994;-83
2022/07/17 04:00:22;;;;;;;;;;;9.30;99.90;;;;;;5015102;28;20175;-83
2022/07/17 04:02:48;;;;;;;;;;;9.30;99.90;;;;;;5014383;28;19928;-83
2022/07/17 04:05:14;;;;;;;;;;;9.40;99.90;;;;;;5012775;28;19953;-83
2022/07/17 04:07:40;;;;;;;;;;;9.30;99.90;;;;;;5015565;28;19929;-83
2022/07/17 04:10:07;;;;;;;;;;;9.40;99.90;;;;;;5016703;28;19986;-84
2022/07/17 04:12:32;;;;;;;;;;;9.30;99.90;;;;;;5014444;28;20184;-83
2022/07/17 04:14:58;;;;;;;;;;;9.30;99.90;;;;;;5014780;28;20197;-84
2022/07/17 04:17:24;;;;;;;;;;;9.30;99.90;;;;;;5004339;28;19943;-83
2022/07/17 04:19:50;;;;;;;;;;;9.30;99.90;;;;;;5012676;28;19929;-84
2022/07/17 04:22:16;;;;;;;;;;;9.30;99.90;;;;;;5015065;28;19929;-84
2022/07/17 04:24:42;;;;;;;;;;;9.30;99.90;;;;;;5001081;28;19951;-84
2022/07/17 04:27:07;;;;;;;;;;;9.30;99.90;;;;;;5012006;28;20382;-84
2022/07/17 04:29:33;;;;;;;;;;;9.40;99.90;;;;;;5016361;28;20043;-85
2022/07/17 04:31:59;;;;;;;;;;;9.40;99.90;;;;;;5011211;28;20020;-84
2022/07/17 04:34:24;;;;;;;;;;;9.40;99.90;;;;;;5009222;28;20299;-83
2022/07/17 04:36:50;;;;;;;;;;;9.50;99.90;;;;;;5013890;28;20699;-83
2022/07/17 04:39:16;;;;;;;;;;;9.60;99.90;;;;;;5012605;28;19929;-82
2022/07/17 04:41:42;;;;;;;;;;;9.70;99.90;;;;;;5009534;28;19936;-84
2022/07/17 04:44:07;;;;;;;;;;;9.80;99.90;;;;;;5012731;28;21021;-84
2022/07/17 04:46:33;;;;;;;;;;;9.90;99.90;;;;;;5015891;28;20497;-83
2022/07/17 04:48:59;;;;;;;;;;;10.10;99.90;;;;;;5010436;28;19933;-83
2022/07/17 04:51:24;;;;;;;;;;;10.20;99.90;;;;;;5010292;28;20746;-84
2022/07/17 04:53:50;;;;;;;;;;;10.30;99.90;;;;;;5010365;28;20093;-84
2022/07/17 04:56:16;;;;;;;;;;;10.40;99.90;;;;;;4988521;28;19935;-82
2022/07/17 04:58:41;;;;;;;;;;;10.50;99.90;;;;;;5012862;28;20302;-84
2022/07/17 05:01:07;;;;;;;;;;;10.60;99.90;;;;;;5013251;28;20019;-84
2022/07/17 05:03:33;;;;;;;;;;;10.70;99.90;;;;;;5017074;28;20039;-84
2022/07/17 05:05:58;;;;;;;;;;;10.80;99.90;;;;;;5013769;28;19932;-83
2022/07/17 05:08:24;;;;;;;;;;;10.90;99.90;;;;;;5013859;28;20922;-83
2022/07/17 05:10:50;;;;;;;;;;;11.00;99.90;;;;;;4993720;28;19929;-83
2022/07/17 05:13:15;;;;;;;;;;;11.10;99.90;;;;;;5011171;28;19929;-84
2022/07/17 05:15:41;;;;;;;;;;;11.20;99.90;;;;;;5011493;28;20357;-83
2022/07/17 05:18:07;;;;;;;;;;;11.40;99.90;;;;;;5007854;28;19929;-84
2022/07/17 05:20:33;;;;;;;;;;;11.80;99.90;;;;;;5011021;28;19982;-84
2022/07/17 05:22:58;;;;;;;;;;;13.20;99.90;;;;;;5013486;28;19933;-84
2022/07/17 05:25:25;;;;;;;;;;;14.40;99.90;;;;;;5011683;28;20163;-84
2022/07/17 05:27:51;;;;;;;;;;;16.50;99.90;;;;;;4993970;28;19935;-83
2022/07/17 05:30:16;;;;;;;;;;;17.10;99.90;;;;;;5009582;28;19926;-84
2022/07/17 05:32:42;;;;;;;;;;;18.80;99.90;;;;;;5017290;28;20023;-84
2022/07/17 05:35:08;;;;;;;;;;;19.60;99.90;;;;;;4998119;28;19932;-83
2022/07/17 05:37:33;;;;;;;;;;;20.80;99.90;;;;;;5017038;28;20011;-84
2022/07/17 05:39:59;;;;;;;;;;;20.60;99.90;;;;;;5014878;28;19929;-84
2022/07/17 05:42:24;;;;;;;;;;;21.70;99.90;;;;;;5017146;28;19956;-84
2022/07/17 05:44:50;;;;;;;;;;;21.00;99.90;;;;;;4999155;28;19936;-84
2022/07/17 05:47:16;;;;;;;;;;;20.70;99.90;;;;;;5012529;28;19933;-84
2022/07/17 05:49:41;;;;;;;;;;;19.10;99.90;;;;;;5013916;28;19929;-84
2022/07/17 05:52:07;;;;;;;;;;;18.10;99.90;;;;;;5018163;28;19940;-84
2022/07/17 05:54:33;;;;;;;;;;;17.50;99.90;;;;;;5016631;28;19929;-84
2022/07/17 05:56:59;;;;;;;;;;;16.90;99.90;;;;;;5013071;28;19928;-84
2022/07/17 05:59:25;;;;;;;;;;;16.50;99.90;;;;;;5011747;28;19940;-84
2022/07/17 06:01:50;;;;;;;;;;;16.20;99.90;;;;;;5010336;28;19929;-83
2022/07/17 06:04:16;;;;;;;;;;;16.00;99.90;;;;;;4995580;28;19929;-84
2022/07/17 06:06:42;;;;;;;;;;;16.00;99.90;;;;;;5016809;28;19929;-85
2022/07/17 06:09:07;;;;;;;;;;;15.80;99.90;;;;;;5015506;28;19925;-85
2022/07/17 06:11:33;;;;;;;;;;;15.70;99.90;;;;;;5013630;28;19944;-83
2022/07/17 06:13:59;;;;;;;;;;;15.60;99.90;;;;;;5011004;28;20250;-84
2022/07/17 06:16:25;;;;;;;;;;;15.50;99.90;;;;;;5011361;28;19933;-84
2022/07/17 06:18:50;;;;;;;;;;;15.60;99.90;;;;;;5014614;28;19929;-84
2022/07/17 06:21:16;;;;;;;;;;;15.60;99.90;;;;;;5015132;28;19937;-85
2022/07/17 06:23:42;;;;;;;;;;;15.60;99.90;;;;;;5011648;28;19952;-84
2022/07/17 06:26:07;;;;;;;;;;;15.60;99.90;;;;;;5018517;28;20275;-85
2022/07/17 06:28:33;;;;;;;;;;;15.50;99.90;;;;;;5010218;28;19929;-84
2022/07/17 06:30:59;;;;;;;;;;;15.50;99.90;;;;;;5018046;28;19929;-84
2022/07/17 06:33:24;;;;;;;;;;;15.60;99.90;;;;;;5010279;28;19929;-84
2022/07/17 06:35:51;;;;;;;;;;;15.50;99.90;;;;;;5005392;28;19929;-84
2022/07/17 06:38:16;;;;;;;;;;;15.50;99.90;;;;;;4994761;28;20028;-85
2022/07/17 06:40:42;;;;;;;;;;;15.50;99.90;;;;;;5017962;28;20082;-84
2022/07/17 06:43:08;;;;;;;;;;;15.60;99.90;;;;;;5015183;28;19981;-84
2022/07/17 06:45:33;;;;;;;;;;;15.70;99.90;;;;;;5007836;28;19990;-85
2022/07/17 06:47:59;;;;;;;;;;;16.30;99.90;;;;;;5010124;28;20361;-85
2022/07/17 06:50:25;;;;;;;;;;;16.80;99.90;;;;;;5010014;28;19976;-83
2022/07/17 06:52:50;;;;;;;;;;;17.20;99.90;;;;;;5014769;28;20870;-83
2022/07/17 06:55:16;;;;;;;;;;;17.50;99.90;;;;;;5009370;28;19998;-82
2022/07/17 06:57:42;;;;;;;;;;;17.70;99.90;;;;;;5006947;28;19951;-83
2022/07/17 07:00:08;;;;;;;;;;;18.00;99.90;;;;;;5008067;28;20083;-85
2022/07/17 07:02:34;;;;;;;;;;;18.30;99.90;;;;;;5013206;28;19935;-83
2022/07/17 07:05:01;;;;;;;;;;;18.50;99.90;;;;;;4988950;28;20803;-84
2022/07/17 07:07:26;;;;;;;;;;;18.70;99.90;;;;;;5013213;28;20468;-84
2022/07/17 07:09:52;;;;;;;;;;;19.00;99.90;;;;;;5011254;28;19925;-83
2022/07/17 07:12:18;;;;;;;;;;;18.90;99.90;;;;;;5013280;28;19929;-85
2022/07/17 07:14:43;;;;;;;;;;;19.30;99.90;;;;;;5015154;28;19929;-84
2022/07/17 07:17:09;;;;;;;;;;;19.20;99.90;;;;;;5016549;28;20031;-84
2022/07/17 07:19:35;;;;;;;;;;;19.60;99.90;;;;;;5013063;28;19933;-84
2022/07/17 07:22:00;;;;;;;;;;;19.80;99.90;;;;;;5021113;28;19929;-84
2022/07/17 07:24:26;;;;;;;;;;;19.80;99.90;;;;;;5018897;28;19936;-83
2022/07/17 07:26:52;;;;;;;;;;;20.10;99.90;;;;;;5013078;28;20464;-83
2022/07/17 07:29:17;;;;;;;;;;;20.20;99.90;;;;;;5013409;28;20350;-84
2022/07/17 07:31:43;;;;;;;;;;;20.10;99.90;;;;;;5018927;28;20463;-84
2022/07/17 07:34:09;;;;;;;;;;;20.30;99.90;;;;;;5012996;28;19936;-85
2022/07/17 07:36:34;;;;;;;;;;;20.70;99.90;;;;;;5017529;28;19933;-85
2022/07/17 07:39:00;;;;;;;;;;;20.80;99.90;;;;;;5013883;28;19979;-84
2022/07/17 07:41:26;;;;;;;;;;;21.10;99.90;;;;;;4992675;28;19963;-84
2022/07/17 07:43:51;;;;;;;;;;;21.00;99.90;;;;;;4990053;28;20735;-82
2022/07/17 07:46:17;;;;;;;;;;;21.20;99.90;;;;;;4989191;28;20980;-83
2022/07/17 07:48:43;;;;;;;;;;;21.10;99.90;;;;;;5000129;28;19972;-84
2022/07/17 07:51:08;;;;;;;;;;;20.70;99.90;;;;;;4990761;28;19940;-85
2022/07/17 07:53:34;;;;;;;;;;;20.50;99.90;;;;;;4998353;28;20159;-83
2022/07/17 07:56:00;;;;;;;;;;;21.10;99.90;;;;;;5003617;28;19929;-87
2022/07/17 07:58:41;;;;;;;;;;;21.10;99.90;;;;;;4992240;28;20361;-87
2022/07/17 08:01:07;;;;;;;;;;;21.40;99.90;;;;;;5011788;28;20387;-86
2022/07/17 08:03:32;;;;;;;;;;;21.50;99.90;;;;;;5004313;28;19929;-85
2022/07/17 08:05:58;;;;;;;;;;;21.50;99.90;;;;;;5002167;28;20056;-87
2022/07/17 08:08:23;;;;;;;;;;;21.60;99.90;;;;;;5002623;28;19948;-86
2022/07/17 08:10:49;;;;;;;;;;;21.50;99.90;;;;;;4997668;28;20569;-85
2022/07/17 08:13:15;;;;;;;;;;;21.80;99.90;;;;;;5010141;28;19932;-86
2022/07/17 08:15:41;;;;;;;;;;;21.90;99.90;;;;;;5010233;28;19929;-87
2022/07/17 08:18:07;;;;;;;;;;;21.90;99.90;;;;;;5009064;28;19989;-85
2022/07/17 08:20:32;;;;;;;;;;;21.70;99.90;;;;;;5014926;28;19971;-85
2022/07/17 08:22:58;;;;;;;;;;;21.60;99.90;;;;;;5011164;28;19929;-85
2022/07/17 08:25:24;;;;;;;;;;;21.80;99.90;;;;;;5017940;28;20374;-83
2022/07/17 08:27:49;;;;;;;;;;;21.90;99.90;;;;;;5009119;28;19983;-86
2022/07/17 08:30:15;;;;;;;;;;;22.00;99.90;;;;;;5000050;28;19933;-85
2022/07/17 08:32:42;;;;;;;;;;;22.40;99.90;;;;;;5015784;28;19929;-84
2022/07/17 08:35:07;;;;;;;;;;;22.50;99.90;;;;;;5015660;28;19928;-86
2022/07/17 08:38:03;;;;;;;;;;;22.20;99.90;;;;;;4976995;28;19940;-87
2022/07/17 08:40:33;;;;;;;;;;;22.70;99.90;;;;;;4972273;28;20428;-85
2022/07/17 08:42:59;;;;;;;;;;;22.40;99.90;;;;;;5016182;28;19929;-85
2022/07/17 08:45:25;;;;;;;;;;;22.60;99.90;;;;;;4993145;28;19932;-86
2022/07/17 08:47:52;;;;;;;;;;;22.30;99.90;;;;;;4994975;28;20687;-85
2022/07/17 08:50:21;;;;;;;;;;;22.70;99.90;;;;;;5018932;28;20028;-85
2022/07/17 08:52:47;;;;;;;;;;;22.70;99.90;;;;;;5014519;28;19928;-87
2022/07/17 08:55:13;;;;;;;;;;;22.90;99.90;;;;;;4980751;28;19928;-86
2022/07/17 08:57:43;;;;;;;;;;;22.30;99.90;;;;;;5016769;28;19979;-85
2022/07/17 09:00:10;;;;;;;;;;;22.20;99.90;;;;;;5016060;28;19936;-84
2022/07/17 09:02:38;;;;;;;;;;;22.00;99.90;;;;;;5019404;28;20344;-87
2022/07/17 09:05:05;;;;;;;;;;;22.10;99.90;;;;;;5011827;28;19936;-85
2022/07/17 09:07:31;;;;;;;;;;;22.30;99.90;;;;;;5013825;28;19929;-86
2022/07/17 09:09:57;;;;;;;;;;;22.40;99.90;;;;;;5016435;28;19929;-84
2022/07/17 09:12:25;;;;;;;;;;;22.50;99.90;;;;;;5012339;28;20022;-85
2022/07/17 09:14:50;;;;;;;;;;;21.90;99.90;;;;;;4999654;28;19935;-85
2022/07/17 09:17:18;;;;;;;;;;;22.20;99.90;;;;;;5014588;28;19928;-86
2022/07/17 09:19:48;;;;;;;;;;;22.40;99.90;;;;;;5013841;28;19976;-85
2022/07/17 09:22:13;;;;;;;;;;;22.50;99.90;;;;;;5020399;28;20023;-86
2022/07/17 09:24:41;;;;;;;;;;;22.80;99.90;;;;;;5010775;28;19929;-85
2022/07/17 09:27:07;;;;;;;;;;;22.50;99.90;;;;;;5013119;28;20337;-86
2022/07/17 09:29:33;;;;;;;;;;;23.10;99.90;;;;;;4997819;28;19975;-86
2022/07/17 09:31:59;;;;;;;;;;;22.50;99.90;;;;;;5015518;28;19936;-83
2022/07/17 09:34:24;;;;;;;;;;;22.70;99.90;;;;;;5015816;28;20301;-82
2022/07/17 09:37:00;;;;;;;;;;;22.80;99.90;;;;;;5016044;28;20102;-82
2022/07/17 09:39:39;;;;;;;;;;;23.10;99.90;;;;;;5019361;28;20421;-83
2022/07/17 09:42:05;;;;;;;;;;;23.50;99.90;;;;;;5019782;28;19982;-86
2022/07/17 09:44:31;;;;;;;;;;;23.60;99.90;;;;;;5020760;28;19937;-85
2022/07/17 09:46:57;;;;;;;;;;;23.10;99.90;;;;;;5015042;28;20109;-84
2022/07/17 09:49:26;;;;;;;;;;;23.50;99.90;;;;;;5018011;28;20287;-86
2022/07/17 09:51:52;;;;;;;;;;;23.60;99.90;;;;;;4991869;28;19937;-86
2022/07/17 09:54:20;;;;;;;;;;;23.60;99.90;;;;;;5014896;28;19928;-85
2022/07/17 09:56:47;;;;;;;;;;;23.80;99.90;;;;;;5011001;28;19982;-85
2022/07/17 09:59:13;;;;;;;;;;;23.60;99.70;;;;;;4995524;28;20044;-88
2022/07/17 10:01:40;;;;;;;;;;;24.00;99.90;;;;;;4995376;28;19929;-84
2022/07/17 10:04:05;;;;;;;;;;;22.80;99.00;;;;;;5017758;28;19928;-86
2022/07/17 10:06:31;;;;;;;;;;;23.80;99.90;;;;;;4991185;28;19929;-84
2022/07/17 10:08:57;;;;;;;;;;;24.10;99.90;;;;;;5009640;28;19928;-85
2022/07/17 10:11:24;;;;;;;;;;;24.00;99.90;;;;;;5012983;28;20409;-83
2022/07/17 10:13:52;;;;;;;;;;;24.40;99.90;;;;;;5025368;28;19929;-84
2022/07/17 10:16:25;;;;;;;;;;;24.60;99.90;;;;;;5018501;28;19928;-86
2022/07/17 10:18:54;;;;;;;;;;;24.60;99.90;;;;;;5016693;28;19955;-84
2022/07/17 10:21:21;;;;;;;;;;;24.80;98.30;;;;;;5016977;28;19929;-84
2022/07/17 10:23:48;;;;;;;;;;;24.90;98.30;;;;;;5018165;28;20676;-84
2022/07/17 10:26:14;;;;;;;;;;;24.70;96.70;;;;;;5019403;28;19959;-85
2022/07/17 10:28:46;;;;;;;;;;;24.80;96.70;;;;;;5017627;28;19925;-87
2022/07/17 10:31:25;;;;;;;;;;;24.30;96.40;;;;;;4998760;28;20685;-86
2022/07/17 10:33:58;;;;;;;;;;;24.60;97.80;;;;;;5001362;28;20362;-86
2022/07/17 10:36:42;;;;;;;;;;;24.60;96.90;;;;;;5009651;28;20434;-86
2022/07/17 10:39:12;;;;;;;;;;;24.90;96.10;;;;;;4992441;28;20039;-84
2022/07/17 10:41:41;;;;;;;;;;;24.90;95.50;;;;;;4992378;28;20444;-86
2022/07/17 10:44:07;;;;;;;;;;;24.70;93.80;;;;;;4962113;28;20412;-85
2022/07/17 10:46:33;;;;;;;;;;;24.90;95.70;;;;;;4988969;28;20024;-86
2022/07/17 10:49:01;;;;;;;;;;;24.90;94.80;;;;;;5003630;28;21033;-84
2022/07/17 10:51:29;;;;;;;;;;;24.80;96.20;;;;;;5007737;28;19929;-87
2022/07/17 10:53:59;;;;;;;;;;;24.80;93.50;;;;;;4991943;28;20401;-86
2022/07/17 10:56:25;;;;;;;;;;;24.20;93.00;;;;;;4999376;28;19929;-85
2022/07/17 10:58:52;;;;;;;;;;;23.60;92.00;;;;;;5004129;28;19933;-85
2022/07/17 11:01:18;;;;;;;;;;;22.70;93.90;;;;;;5008365;28;19982;-86
2022/07/17 11:03:51;;;;;;;;;;;21.90;94.90;;;;;;5010182;28;19933;-86
2022/07/17 11:06:20;;;;;;;;;;;22.80;99.90;;;;;;4996178;28;19929;-85
2022/07/17 11:08:47;;;;;;;;;;;23.00;96.50;;;;;;4996961;28;19940;-85
2022/07/17 11:11:13;;;;;;;;;;;23.60;98.00;;;;;;4997541;28;20002;-88
2022/07/17 11:13:39;;;;;;;;;;;24.40;98.10;;;;;;4993095;28;19929;-84
2022/07/17 11:16:05;;;;;;;;;;;24.90;99.30;;;;;;4974681;28;19935;-83
2022/07/17 11:18:30;;;;;;;;;;;25.20;97.60;;;;;;4979112;28;19943;-86
2022/07/17 11:21:00;;;;;;;;;;;24.70;96.00;;;;;;4994073;28;20035;-83
2022/07/17 11:23:27;;;;;;;;;;;24.60;94.70;;;;;;5006162;28;20031;-85
2022/07/17 11:25:55;;;;;;;;;;;25.30;96.20;;;;;;5002599;28;20381;-83
2022/07/17 11:28:38;;;;;;;;;;;25.70;94.30;;;;;;5006181;28;19933;-85
2022/07/17 11:31:17;;;;;;;;;;;25.90;95.70;;;;;;5009611;28;19934;-87
2022/07/17 11:33:53;;;;;;;;;;;25.90;93.50;;;;;;5010036;28;19986;-85
2022/07/17 11:36:22;;;;;;;;;;;26.30;94.50;;;;;;4989385;28;19929;-86
2022/07/17 11:38:48;;;;;;;;;;;26.30;93.00;;;;;;4994054;28;19972;-83
2022/07/17 11:41:15;;;;;;;;;;;26.30;92.20;;;;;;4973226;28;20047;-84
2022/07/17 11:43:41;;;;;;;;;;;26.20;93.50;;;;;;4993003;28;20784;-84
2022/07/17 11:46:08;;;;;;;;;;;26.60;93.70;;;;;;4993428;28;19929;-85
2022/07/17 11:48:33;;;;;;;;;;;26.50;93.80;;;;;;4977861;28;19933;-85
2022/07/17 11:50:59;;;;;;;;;;;26.50;92.80;;;;;;4984907;28;20485;-86
2022/07/17 11:53:32;;;;;;;;;;;26.50;92.70;;;;;;4979056;28;20316;-85
2022/07/17 11:55:58;;;;;;;;;;;26.60;93.30;;;;;;4977304;28;19959;-84
2022/07/17 11:58:24;;;;;;;;;;;25.50;92.10;;;;;;4968636;28;20385;-84
2022/07/17 12:00:59;;;;;;;;;;;26.20;92.40;;;;;;4969386;28;19929;-83
2022/07/17 12:03:25;;;;;;;;;;;26.60;91.10;;;;;;4977431;28;20721;-84
2022/07/17 12:05:51;;;;;;;;;;;26.60;92.30;;;;;;4988326;28;19933;-87
2022/07/17 12:08:20;;;;;;;;;;;24.80;90.60;;;;;;4978008;28;19969;-85
2022/07/17 12:10:47;;;;;;;;;;;24.20;92.30;;;;;;4988549;28;20401;-84
2022/07/17 12:13:13;;;;;;;;;;;25.40;92.80;;;;;;4976768;28;20592;-86
2022/07/17 12:15:41;;;;;;;;;;;25.80;90.60;;;;;;4993414;28;19929;-85
2022/07/17 12:18:19;;;;;;;;;;;25.60;92.40;;;;;;4984084;28;20280;-82
2022/07/17 12:20:46;;;;;;;;;;;26.20;94.70;;;;;;4986415;28;19935;-85
2022/07/17 12:23:31;;;;;;;;;;;26.00;92.30;;;;;;4980610;28;19986;-85
2022/07/17 12:26:10;;;;;;;;;;;26.70;93.10;;;;;;4978322;28;19925;-84
2022/07/17 12:28:36;;;;;;;;;;;26.70;92.60;;;;;;4984256;28;20008;-84
2022/07/17 12:31:02;;;;;;;;;;;26.60;91.10;;;;;;4986103;28;20357;-83
2022/07/17 12:33:28;;;;;;;;;;;26.90;92.00;;;;;;4986346;28;19940;-87
2022/07/17 12:35:54;;;;;;;;;;;27.20;91.00;;;;;;4951921;28;20150;-85
2022/07/17 12:38:20;;;;;;;;;;;26.90;91.00;;;;;;4986281;28;20564;-85
2022/07/17 12:40:48;;;;;;;;;;;26.80;90.70;;;;;;4990885;28;19967;-86
2022/07/17 12:43:39;;;;;;;;;;;27.00;90.50;;;;;;4985247;28;19933;-83
2022/07/17 12:46:05;;;;;;;;;;;26.90;91.10;;;;;;4989827;28;20377;-86
2022/07/17 12:48:31;;;;;;;;;;;27.30;91.10;;;;;;4994055;28;19928;-85
2022/07/17 12:50:57;;;;;;;;;;;27.50;91.90;;;;;;4985635;28;19929;-85
2022/07/17 12:53:23;;;;;;;;;;;27.50;91.00;;;;;;4963972;28;20036;-84
2022/07/17 12:55:48;;;;;;;;;;;27.50;92.00;;;;;;4992017;28;19929;-84
2022/07/17 12:58:14;;;;;;;;;;;27.10;87.90;;;;;;4974531;28;19929;-84
2022/07/17 13:00:41;;;;;;;;;;;26.60;88.80;;;;;;4994956;28;19929;-86
2022/07/17 13:03:16;;;;;;;;;;;26.30;85.90;;;;;;4990858;28;20016;-86
2022/07/17 13:05:42;;;;;;;;;;;27.10;91.60;;;;;;4973205;28;19940;-85
2022/07/17 13:08:07;;;;;;;;;;;27.50;90.80;;;;;;4995475;28;19972;-84
2022/07/17 13:10:33;;;;;;;;;;;27.00;89.20;;;;;;4981156;28;20000;-86
2022/07/17 13:12:59;;;;;;;;;;;27.30;90.60;;;;;;4999841;28;19928;-86
2022/07/17 13:15:25;;;;;;;;;;;27.40;91.40;;;;;;5002668;28;19937;-84
2022/07/17 13:17:50;;;;;;;;;;;27.60;91.10;;;;;;4998486;28;20020;-86
2022/07/17 13:20:16;;;;;;;;;;;27.30;87.80;;;;;;5002496;28;19929;-86
2022/07/17 13:22:42;;;;;;;;;;;27.10;90.00;;;;;;5002664;28;19972;-85
2022/07/17 13:25:08;;;;;;;;;;;26.90;90.20;;;;;;5000999;28;20693;-86
2022/07/17 13:27:33;;;;;;;;;;;27.30;90.00;;;;;;4984080;28;20457;-87
2022/07/17 13:29:59;;;;;;;;;;;27.50;91.50;;;;;;5000847;28;19935;-86
2022/07/17 13:32:24;;;;;;;;;;;27.30;86.60;;;;;;5003209;28;19929;-84
2022/07/17 13:34:50;;;;;;;;;;;27.10;91.00;;;;;;5004430;28;19928;-85
2022/07/17 13:37:16;;;;;;;;;;;27.70;89.10;;;;;;5000083;28;19937;-86
2022/07/17 13:39:42;;;;;;;;;;;26.70;86.60;;;;;;5003245;28;20854;-86
2022/07/17 13:42:08;;;;;;;;;;;26.90;90.10;;;;;;5001377;28;20389;-85
2022/07/17 13:44:34;;;;;;;;;;;26.80;90.40;;;;;;4995374;28;20012;-84
2022/07/17 13:46:59;;;;;;;;;;;27.60;91.40;;;;;;4981622;28;20466;-86
2022/07/17 13:49:25;;;;;;;;;;;27.70;91.30;;;;;;4997660;28;20370;-85
2022/07/17 13:51:51;;;;;;;;;;;27.60;90.80;;;;;;5001100;28;19984;-83
2022/07/17 13:54:17;;;;;;;;;;;28.20;90.70;;;;;;4998649;28;20646;-83
2022/07/17 13:56:43;;;;;;;;;;;28.20;90.20;;;;;;4994427;28;19935;-86
2022/07/17 13:59:09;;;;;;;;;;;28.00;84.70;;;;;;4994897;28;20365;-85
2022/07/17 14:01:34;;;;;;;;;;;28.20;88.50;;;;;;4997599;28;19975;-83
2022/07/17 14:04:00;;;;;;;;;;;28.10;89.00;;;;;;5021786;28;19929;-84
2022/07/17 14:06:26;;;;;;;;;;;28.30;90.00;;;;;;5001108;28;20763;-84
2022/07/17 14:08:51;;;;;;;;;;;28.60;89.20;;;;;;5000907;28;19929;-86
2022/07/17 14:11:17;;;;;;;;;;;28.10;89.50;;;;;;4984328;28;19936;-85
2022/07/17 14:13:43;;;;;;;;;;;28.10;90.10;;;;;;5004705;28;20682;-85
2022/07/17 14:16:09;;;;;;;;;;;28.10;87.30;;;;;;5003131;28;19933;-85